Time;durP1;ratioP1;P1;durP2;ratioP2;P2;SDS_P1;SDS_P2;PMS_P1;PMS_P2;Temp;Humidity;BMP_temperature;BMP_pressure;BME280_temperature;BME280_humidity;BME280_pressure;Samples;Min_cycle;Max_cycle;Signal;HPM_P1;HPM_P2
2021/10/19 00:05:56;;;;;;;4.90;3.18;;;;;;;9.69;100.00;101275.14;712642;1180;113820;-78
2021/10/19 00:20:59;;;;;;;5.00;3.30;;;;;;;9.80;100.00;101277.84;713285;1184;113862;-75
2021/10/19 00:36:02;;;;;;;5.65;3.40;;;;;;;9.95;100.00;101281.20;712898;1181;114385;-78
2021/10/19 00:51:04;;;;;;;7.00;4.30;;;;;;;9.87;100.00;101269.56;713201;1206;115170;-77
2021/10/19 01:06:08;;;;;;;6.28;4.05;;;;;;;9.86;100.00;101247.77;712852;1180;113859;-78
2021/10/19 01:21:11;;;;;;;7.50;3.97;;;;;;;9.78;100.00;101244.86;713179;1203;115295;-79
2021/10/19 01:36:13;;;;;;;5.15;3.40;;;;;;;9.81;100.00;101248.08;712806;1203;114761;-78
2021/10/19 01:51:15;;;;;;;5.53;3.60;;;;;;;9.61;100.00;101246.02;713055;1179;113932;-79
2021/10/19 02:06:18;;;;;;;4.50;3.35;;;;;;;9.60;100.00;101239.09;713118;1203;114596;-78
2021/10/19 02:21:20;;;;;;;5.10;3.67;;;;;;;9.72;100.00;101234.80;712631;1203;113339;-79
2021/10/19 02:36:22;;;;;;;5.80;3.90;;;;;;;9.61;100.00;101228.51;712974;1203;114510;-78
2021/10/19 02:51:24;;;;;;;8.87;3.93;;;;;;;9.52;100.00;101225.70;712620;1203;115064;-79
2021/10/19 03:06:26;;;;;;;4.55;3.50;;;;;;;9.60;100.00;101220.76;712860;1181;113904;-78
2021/10/19 03:21:29;;;;;;;7.53;3.90;;;;;;;9.48;100.00;101217.20;712999;1207;113852;-78
2021/10/19 03:36:32;;;;;;;5.63;3.13;;;;;;;9.46;100.00;101224.31;712987;1205;113934;-78
2021/10/19 03:51:34;;;;;;;6.55;3.70;;;;;;;9.53;100.00;101224.73;712840;1208;113837;-78
2021/10/19 04:06:37;;;;;;;19.80;6.87;;;;;;;9.55;100.00;101243.81;712663;1203;114264;-78
2021/10/19 04:21:47;;;;;;;15.17;5.93;;;;;;;9.52;100.00;101239.62;718251;1207;114337;-79
2021/10/19 04:36:49;;;;;;;17.85;6.38;;;;;;;9.47;100.00;101224.20;712326;1205;114603;-79
2021/10/19 04:51:51;;;;;;;34.95;8.10;;;;;;;9.37;100.00;101228.42;713019;1209;114888;-78
2021/10/19 05:06:53;;;;;;;23.20;7.80;;;;;;;9.30;100.00;101206.20;713106;1203;115654;-78
2021/10/19 05:21:56;;;;;;;22.80;7.08;;;;;;;9.11;100.00;101196.14;713361;1203;116018;-79
2021/10/19 05:36:58;;;;;;;20.77;7.47;;;;;;;9.07;100.00;101208.59;713396;1203;115433;-79
2021/10/19 05:52:01;;;;;;;16.70;6.80;;;;;;;9.09;100.00;101208.48;713127;1203;114800;-79
2021/10/19 06:07:04;;;;;;;18.60;8.85;;;;;;;9.09;100.00;101211.10;712828;1205;114691;-78
2021/10/19 06:22:06;;;;;;;19.05;9.65;;;;;;;9.09;100.00;101201.48;712894;1203;115360;-75
2021/10/19 06:37:09;;;;;;;13.33;8.03;;;;;;;9.05;100.00;101202.61;713292;1203;114083;-75
2021/10/19 06:52:12;;;;;;;22.93;12.33;;;;;;;9.15;100.00;101193.20;713512;1203;114976;-75
2021/10/19 07:07:14;;;;;;;43.18;31.80;;;;;;;9.29;100.00;101207.13;713317;1203;114496;-88
2021/10/19 07:22:17;;;;;;;38.83;22.33;;;;;;;9.47;100.00;101202.42;714070;1203;114653;-88
2021/10/19 07:37:22;;;;;;;148.40;70.53;;;;;;;9.63;100.00;101203.05;713989;1203;114842;-86
2021/10/19 07:52:25;;;;;;;76.07;26.77;;;;;;;9.92;100.00;101201.94;713913;1203;115861;-73
2021/10/19 08:07:27;;;;;;;38.80;19.43;;;;;;;10.06;100.00;101203.59;713875;1208;114947;-73
2021/10/19 08:22:32;;;;;;;52.10;25.65;;;;;;;10.21;100.00;101185.92;713228;1203;115048;-83
2021/10/19 08:37:34;;;;;;;42.47;18.83;;;;;;;10.56;100.00;101186.00;713267;1203;114471;-81
2021/10/19 08:52:37;;;;;;;42.20;19.60;;;;;;;10.95;100.00;101164.75;714703;1205;114316;-81
2021/10/19 09:07:39;;;;;;;63.77;28.07;;;;;;;11.42;100.00;101143.69;713088;1180;114431;-80
2021/10/19 09:22:52;;;;;;;51.28;23.93;;;;;;;11.68;100.00;101125.88;713346;1201;114563;-80
2021/10/19 09:38:00;;;;;;;48.68;26.05;;;;;;;11.89;100.00;101122.47;713036;1197;116143;-82
2021/10/19 09:53:03;;;;;;;39.20;21.80;;;;;;;11.99;100.00;101137.40;713174;1203;115430;-83
2021/10/19 10:08:10;;;;;;;34.40;19.40;;;;;;;12.06;100.00;101144.80;713287;1205;114633;-81
2021/10/19 10:23:40;;;;;;;40.33;22.50;;;;;;;12.32;100.00;101140.88;714803;1203;114954;-79
2021/10/19 10:38:55;;;;;;;38.83;23.30;;;;;;;12.74;100.00;101124.30;716826;1205;115897;-83
2021/10/19 10:53:58;;;;;;;45.80;25.10;;;;;;;12.83;100.00;101085.83;713351;1203;115271;-83
2021/10/19 11:09:06;;;;;;;43.90;23.53;;;;;;;13.16;100.00;101086.55;713161;1202;114493;-81
2021/10/19 11:24:10;;;;;;;52.90;26.43;;;;;;;13.27;100.00;101044.27;712940;1203;115211;-78
2021/10/19 11:39:15;;;;;;;47.47;26.90;;;;;;;13.51;100.00;101058.92;713057;1205;116303;-80
2021/10/19 11:54:20;;;;;;;77.03;40.00;;;;;;;14.14;100.00;101040.09;713416;1203;115554;-80
2021/10/19 12:09:27;;;;;;;53.93;29.53;;;;;;;13.84;100.00;101000.69;712730;1203;115022;-79
2021/10/19 12:24:36;;;;;;;70.40;35.30;;;;;;;13.94;100.00;100980.42;712949;1205;115118;-78
2021/10/19 12:39:43;;;;;;;;;;;;;;;13.44;100.00;100952.39;712830;1210;114895;-80
2021/10/19 12:54:46;;;;;;;77.10;41.53;;;;;;;13.43;100.00;100940.19;717037;1203;101385;-79
2021/10/19 13:09:48;;;;;;;79.63;48.80;;;;;;;14.30;100.00;100912.02;715759;1203;115828;-86
2021/10/19 13:24:52;;;;;;;68.40;38.10;;;;;;;15.97;100.00;100880.03;714053;1203;115398;-88
2021/10/19 13:39:54;;;;;;;55.65;32.80;;;;;;;14.99;100.00;100872.91;713468;1203;116125;-86
2021/10/19 13:54:57;;;;;;;43.05;25.90;;;;;;;14.87;100.00;100867.02;713760;1206;116062;-86
2021/10/19 14:10:00;;;;;;;37.35;23.65;;;;;;;13.96;100.00;100830.76;715179;1203;115472;-85
2021/10/19 14:25:03;;;;;;;38.97;23.30;;;;;;;13.73;100.00;100827.65;713424;1205;114926;-80
2021/10/19 14:40:07;;;;;;;43.80;24.50;;;;;;;13.53;100.00;100784.70;712986;1203;116066;-81
2021/10/19 14:55:09;;;;;;;37.83;25.48;;;;;;;13.64;100.00;100787.14;712688;1180;115043;-79
2021/10/19 15:10:11;;;;;;;34.10;22.70;;;;;;;13.69;100.00;100777.00;715637;1203;115159;-81
2021/10/19 15:25:14;;;;;;;36.40;22.00;;;;;;;13.47;100.00;100757.94;713217;1203;114409;-78
2021/10/19 15:40:16;;;;;;;42.80;27.88;;;;;;;13.38;100.00;100748.25;713461;1203;115338;-79
2021/10/19 15:55:21;;;;;;;44.20;31.15;;;;;;;13.26;100.00;100739.64;712873;1205;115178;-78
2021/10/19 16:10:24;;;;;;;104.55;67.10;;;;;;;13.22;100.00;100709.26;713248;1203;114934;-78
2021/10/19 16:25:26;;;;;;;49.93;32.65;;;;;;;13.26;100.00;100708.03;713435;1205;115168;-79
2021/10/19 16:40:28;;;;;;;42.43;30.30;;;;;;;13.31;100.00;100726.02;712930;1209;115086;-78
2021/10/19 16:55:31;;;;;;;266.80;128.53;;;;;;;13.42;100.00;100725.05;712905;1203;114683;-78
2021/10/19 17:10:33;;;;;;;34.45;24.50;;;;;;;13.31;100.00;100702.31;713114;1179;114759;-79
2021/10/19 17:25:36;;;;;;;29.03;18.27;;;;;;;13.39;100.00;100694.55;713417;1203;114551;-78
2021/10/19 17:40:39;;;;;;;25.23;17.03;;;;;;;13.34;100.00;100680.94;713234;1205;115073;-79
2021/10/19 17:55:42;;;;;;;25.28;14.63;;;;;;;13.30;100.00;100674.30;712941;1205;115204;-78
2021/10/19 18:10:45;;;;;;;22.50;14.50;;;;;;;13.24;100.00;100666.98;713315;1209;115206;-80
2021/10/19 18:25:48;;;;;;;21.80;13.27;;;;;;;13.19;100.00;100669.22;713081;1205;114728;-80
2021/10/19 18:40:50;;;;;;;23.25;15.93;;;;;;;13.17;100.00;100648.30;712733;1184;114671;-81
2021/10/19 18:55:52;;;;;;;18.78;12.13;;;;;;;13.13;100.00;100625.82;712731;1196;114841;-80
2021/10/19 19:10:56;;;;;;;18.40;11.35;;;;;;;13.02;100.00;100612.84;712964;1208;116160;-80
2021/10/19 19:25:59;;;;;;;22.63;12.53;;;;;;;13.03;100.00;100590.81;712801;1205;115748;-79
2021/10/19 19:41:01;;;;;;;22.90;13.83;;;;;;;13.09;100.00;100563.88;712689;1206;115099;-81
2021/10/19 19:56:05;;;;;;;18.20;10.17;;;;;;;13.12;100.00;100540.72;712667;1205;114570;-80
2021/10/19 20:11:09;;;;;;;20.30;11.50;;;;;;;13.19;100.00;100500.63;712761;1205;114582;-79
2021/10/19 20:26:12;;;;;;;18.60;10.07;;;;;;;13.25;100.00;100477.16;713582;1203;114821;-80
2021/10/19 20:41:15;;;;;;;20.52;11.48;;;;;;;13.29;100.00;100453.99;713393;1203;116449;-80
2021/10/19 20:56:17;;;;;;;16.33;10.23;;;;;;;13.27;100.00;100445.39;713228;1203;115808;-79
2021/10/19 21:11:19;;;;;;;18.28;10.65;;;;;;;13.29;100.00;100422.38;712763;1203;114548;-78
2021/10/19 21:26:22;;;;;;;18.10;10.50;;;;;;;13.25;100.00;100413.09;712701;1180;114931;-78
2021/10/19 21:41:24;;;;;;;15.87;10.33;;;;;;;13.26;100.00;100398.95;712677;1203;114909;-79
2021/10/19 21:56:26;;;;;;;20.30;10.25;;;;;;;13.27;100.00;100396.16;718178;1208;114793;-80
2021/10/19 22:11:29;;;;;;;19.83;11.70;;;;;;;13.17;100.00;100384.89;713157;1203;114853;-79
2021/10/19 22:26:31;;;;;;;19.73;11.65;;;;;;;13.21;100.00;100369.59;712926;1203;115401;-79
2021/10/19 22:41:33;;;;;;;16.10;11.13;;;;;;;13.22;100.00;100352.81;712778;1180;114728;-80
2021/10/19 22:56:38;;;;;;;17.55;11.35;;;;;;;13.15;100.00;100352.59;712305;1203;115230;-81
2021/10/19 23:11:41;;;;;;;22.60;13.70;;;;;;;12.90;100.00;100306.77;712184;1182;115445;-80
2021/10/19 23:26:43;;;;;;;20.27;11.70;;;;;;;12.87;100.00;100271.03;712479;1205;114893;-81
2021/10/19 23:41:45;;;;;;;21.10;13.43;;;;;;;12.90;100.00;100268.09;712480;1205;115296;-81
2021/10/19 23:56:48;;;;;;;22.20;13.70;;;;;;;12.97;100.00;100248.09;712429;1203;115853;-81
